Weather History for KAWG - October, 2013

Change the Weather History Date:

Saturday, October 19, 2013

  Actual Average Record
Temperature  
Mean Temperature 45 °F -  
Max Temperature 55 °F 61 °F 84 °F (2000)
Min Temperature 35 °F 40 °F 30 °F (1996)
Degree Days  
Heating Degree Days 20    
Moisture  
Dew Point 33 °F    
Average Humidity 66    
Maximum Humidity 87    
Minimum Humidity 41    
Precipitation  
Precipitation 0.00 in - - ()
Sea Level Pressure  
Sea Level Pressure 29.88 in    
Wind  
Wind Speed 8 mph (WSW)    
Max Wind Speed 18 mph    
Max Gust Speed 31 mph    
Visibility 10 miles    
Events      
Averages and records for this station are not official NWS values.
T = Trace of Precipitation, MM = Missing Value Source: NWS Daily Summary

Daily Weather History Graph

Daily Weather History Graph

Search for Another Location

Airport or City:

Trip Planner

Search our weather history database for the weather conditions in past years. The results will help you decide how hot, cold, wet, or windy it might be!

Date:

Astronomy

Oct. 19, 2013 Rise Set
Actual Time 7:23 AM CDT 6:19 PM CDT
Civil Twilight 6:55 AM CDT 6:47 PM CDT
Nautical Twilight 6:23 AM CDT 7:19 PM CDT
Astronomical Twilight 5:51 AM CDT 7:51 PM CDT
Moon 6:46 PM CDT (10/19) 8:01 AM CDT (10/19)
Length of Visible Light 11h 52m
Length of Day
10h 56m
Waxing Gibbous, 99% of the Moon is Illuminated
Oct 19
Waxing Gibbous
Oct 26
Last Quarter
Nov 3
New
Nov 9
First Quarter
Nov 17
Full

Hourly Weather History & Observations

Time (CDT) Temp. Windchill Dew Point Humidity Pressure Visibility Wind Dir Wind Speed Gust Speed Precip Events Conditions
12:15 AM 42.8 °F 38.6 °F 33.8 °F 70% 29.97 in 10.0 mi WSW 6.9 mph - N/A   Partly Cloudy
12:35 AM 41.0 °F 37.1 °F 33.8 °F 76% 29.96 in 10.0 mi WSW 5.8 mph - N/A   Mostly Cloudy
12:55 AM 41.0 °F 36.4 °F 33.8 °F 76% 29.96 in 10.0 mi SW 6.9 mph - N/A   Partly Cloudy
1:15 AM 41.0 °F 36.4 °F 33.8 °F 76% 29.95 in 10.0 mi WSW 6.9 mph - N/A   Clear
1:35 AM 41.0 °F 35.8 °F 33.8 °F 76% 29.95 in 10.0 mi WSW 8.1 mph - N/A   Clear
1:55 AM 41.0 °F 37.1 °F 33.8 °F 76% 29.95 in 10.0 mi WSW 5.8 mph - N/A   Clear
2:15 AM 41.0 °F 35.8 °F 33.8 °F 76% 29.94 in 10.0 mi WSW 8.1 mph - N/A   Clear
2:35 AM 39.2 °F 34.2 °F 32.0 °F 75% 29.94 in 10.0 mi WSW 6.9 mph - N/A   Clear
2:55 AM 39.2 °F 35.0 °F 32.0 °F 75% 29.93 in 10.0 mi WSW 5.8 mph - N/A   Clear
3:15 AM 37.4 °F 32.1 °F 32.0 °F 81% 29.92 in 10.0 mi WSW 6.9 mph - N/A   Clear
3:35 AM 35.6 °F 30.7 °F 32.0 °F 87% 29.92 in 10.0 mi WSW 5.8 mph - N/A   Clear
3:55 AM 35.6 °F 29.9 °F 32.0 °F 87% 29.92 in 10.0 mi WSW 6.9 mph - N/A   Clear
4:15 AM 35.6 °F 29.9 °F 32.0 °F 87% 29.92 in 10.0 mi WSW 6.9 mph - N/A   Clear
4:35 AM 35.6 °F 30.7 °F 32.0 °F 87% 29.91 in 10.0 mi WSW 5.8 mph - N/A   Clear
4:55 AM 35.6 °F 29.9 °F 32.0 °F 87% 29.91 in 10.0 mi SW 6.9 mph - N/A   Mostly Cloudy
5:15 AM 35.6 °F 29.9 °F 32.0 °F 87% 29.91 in 10.0 mi SW 6.9 mph - N/A   Overcast
5:35 AM 35.6 °F 30.7 °F 32.0 °F 87% 29.91 in 10.0 mi SW 5.8 mph - N/A   Overcast
5:55 AM 37.4 °F 32.1 °F 33.8 °F 87% 29.90 in 10.0 mi SW 6.9 mph - N/A   Overcast
6:15 AM 37.4 °F 32.1 °F 33.8 °F 87% 29.91 in 10.0 mi SW 6.9 mph - N/A   Overcast
6:35 AM 37.4 °F 33.8 °F 33.8 °F 87% 29.90 in 10.0 mi SW 4.6 mph - N/A   Overcast
6:55 AM 39.2 °F 35.0 °F 33.8 °F 81% 29.90 in 10.0 mi SW 5.8 mph - N/A   Overcast
7:15 AM 39.2 °F 34.2 °F 33.8 °F 81% 29.90 in 10.0 mi SW 6.9 mph - N/A   Overcast
7:35 AM 39.2 °F 33.6 °F 33.8 °F 81% 29.90 in 10.0 mi SW 8.1 mph - N/A   Overcast
7:55 AM 37.4 °F 32.1 °F 33.8 °F 87% 29.91 in 10.0 mi WSW 6.9 mph - N/A   Mostly Cloudy
8:15 AM 39.2 °F 33.6 °F 33.8 °F 81% 29.91 in 10.0 mi WSW 8.1 mph - N/A   Partly Cloudy
8:35 AM 39.2 °F 32.0 °F 33.8 °F 81% 29.91 in 10.0 mi SW 11.5 mph - N/A   Partly Cloudy
8:55 AM 41.0 °F 34.7 °F 35.6 °F 81% 29.91 in 10.0 mi WSW 10.4 mph - N/A   Clear
9:15 AM 42.8 °F 37.5 °F 35.6 °F 76% 29.91 in 10.0 mi WSW 9.2 mph 16.1 mph N/A   Clear
9:35 AM 42.8 °F 36.2 °F 35.6 °F 76% 29.91 in 10.0 mi WSW 12.7 mph - N/A   Clear
9:55 AM 44.6 °F 39.7 °F 35.6 °F 71% 29.91 in 10.0 mi WSW 9.2 mph 16.1 mph N/A   Clear
10:15 AM 46.4 °F 41.5 °F 35.6 °F 66% 29.90 in 10.0 mi WSW 10.4 mph 16.1 mph N/A   Clear
10:35 AM 48.2 °F - 35.6 °F 62% 29.89 in 10.0 mi WSW 11.5 mph - N/A   Clear
10:55 AM 50.0 °F - 35.6 °F 58% 29.88 in 10.0 mi WSW 10.4 mph 16.1 mph N/A   Clear
11:15 AM 51.8 °F - 33.8 °F 50% 29.88 in 10.0 mi WSW 15.0 mph - N/A   Clear
11:35 AM 51.8 °F - 33.8 °F 50% 29.88 in 10.0 mi WSW 17.3 mph 24.2 mph N/A   Clear
11:55 AM 53.6 °F - 32.0 °F 44% 29.87 in 10.0 mi WSW 12.7 mph 20.7 mph N/A   Partly Cloudy
1:55 PM 53.6 °F - 30.2 °F 41% 29.82 in 10.0 mi West 16.1 mph 25.3 mph N/A   Overcast
2:15 PM 53.6 °F - 30.2 °F 41% 29.82 in 10.0 mi West 11.5 mph 23.0 mph N/A   Overcast
2:35 PM 53.6 °F - 32.0 °F 44% 29.82 in 10.0 mi WSW 18.4 mph 31.1 mph N/A   Mostly Cloudy
2:55 PM 53.6 °F - 33.8 °F 47% 29.81 in 10.0 mi SW 16.1 mph 23.0 mph N/A   Mostly Cloudy
3:15 PM 55.4 °F - 33.8 °F 44% 29.81 in 10.0 mi West 13.8 mph 19.6 mph N/A   Overcast
3:35 PM 55.4 °F - 32.0 °F 41% 29.81 in 10.0 mi West 15.0 mph 21.9 mph N/A   Overcast
3:55 PM 55.4 °F - 32.0 °F 41% 29.81 in 10.0 mi West 17.3 mph 23.0 mph N/A   Overcast
4:15 PM 55.4 °F - 33.8 °F 44% 29.82 in 10.0 mi West 10.4 mph 18.4 mph N/A   Overcast
4:35 PM 53.6 °F - 33.8 °F 47% 29.82 in 10.0 mi West 11.5 mph 21.9 mph N/A   Overcast
4:55 PM 53.6 °F - 33.8 °F 47% 29.82 in 10.0 mi WNW 9.2 mph 16.1 mph N/A   Overcast
5:15 PM 53.6 °F - 33.8 °F 47% 29.82 in 10.0 mi WNW 8.1 mph - N/A   Overcast
5:35 PM 53.6 °F - 33.8 °F 47% 29.81 in 10.0 mi West 4.6 mph - N/A   Overcast
5:55 PM 53.6 °F - 33.8 °F 47% 29.82 in 10.0 mi West 3.5 mph - N/A   Overcast
6:15 PM 50.0 °F - 33.8 °F 54% 29.81 in 10.0 mi SSW 3.5 mph - N/A   Mostly Cloudy
6:35 PM 48.2 °F - 33.8 °F 58% 29.81 in 10.0 mi South 5.8 mph - N/A   Mostly Cloudy
6:55 PM 46.4 °F 45.2 °F 35.6 °F 66% 29.82 in 10.0 mi South 3.5 mph - N/A   Overcast
7:15 PM 46.4 °F 44.3 °F 35.6 °F 66% 29.83 in 10.0 mi SW 4.6 mph - N/A   Mostly Cloudy
7:35 PM 48.2 °F - 33.8 °F 58% 29.84 in 10.0 mi WNW 5.8 mph - N/A   Scattered Clouds
7:55 PM 46.4 °F 44.3 °F 33.8 °F 62% 29.84 in 10.0 mi West 4.6 mph - N/A   Mostly Cloudy
8:15 PM 46.4 °F 44.3 °F 33.8 °F 62% 29.84 in 10.0 mi West 4.6 mph - N/A   Mostly Cloudy
8:35 PM 44.6 °F 41.4 °F 33.8 °F 66% 29.84 in 10.0 mi WSW 5.8 mph - N/A   Partly Cloudy
8:55 PM 42.8 °F 38.6 °F 33.8 °F 70% 29.84 in 10.0 mi WSW 6.9 mph - N/A   Clear
9:15 PM 44.6 °F 40.2 °F 33.8 °F 66% 29.84 in 10.0 mi WSW 8.1 mph - N/A   Clear
9:35 PM 44.6 °F 40.7 °F 32.0 °F 61% 29.84 in - WSW 6.9 mph - N/A   Clear
9:55 PM 42.8 °F 39.3 °F 32.0 °F 66% 29.85 in 10.0 mi WSW 5.8 mph - N/A   Clear
10:15 PM 42.8 °F 38.6 °F 30.2 °F 61% 29.85 in 10.0 mi WSW 6.9 mph - N/A   Clear
10:35 PM 42.8 °F 40.1 °F 30.2 °F 61% 29.85 in 10.0 mi WSW 4.6 mph - N/A   Clear
10:55 PM 42.8 °F 38.6 °F 30.2 °F 61% 29.85 in 10.0 mi WSW 6.9 mph - N/A   Scattered Clouds
11:15 PM 42.8 °F 38.6 °F 30.2 °F 61% 29.85 in 10.0 mi WSW 6.9 mph - N/A   Scattered Clouds
11:35 PM 42.8 °F 38.6 °F 30.2 °F 61% 29.86 in 10.0 mi WSW 6.9 mph - N/A   Partly Cloudy
11:55 PM 44.6 °F 41.4 °F 32.0 °F 61% 29.86 in 10.0 mi West 5.8 mph - N/A   Mostly Cloudy